Latest Weather Observations for Adelaide (West Terrace / ngayirdapira)

IDS60901

Issued at 1:11 am CST Saturday 20 July 2024 (issued every 10 minutes, with the page automatically refreshed every 10 minutes)

About weather observations | Map of Adelaide area stations | Latest observations for Adelaide area | Other Formats
Station Details ID: 023000 Name: ADELAIDE (WEST TERRACE / NGAYIRDAPIRA) Lat: -34.93 Lon: 138.58 Height: 29.32 m
Data from the previous 72 hours. | See also: Recent months at Adelaide (West Terrace / ngayirdapira)
Date/Time
CST
Temp
°C
App
Temp
°C
Dew
Point
°C
Rel
Hum
%
Delta-T
°C
Wind Press
QNH
hPa
Press
MSL
hPa
Rain since
9am
mm
Dir  Spd
km/h
Gust
km/h
Spd
kts
Gust
kts
20/01:00am 10.9 4.5 5.4 69 2.5 W 28 46 15 25 1006.8 1006.8 8.2
20/12:35am 11.1 4.7 5.0 66 2.8 W 28 50 15 27 1006.8 1006.8 8.2
20/12:30am 11.1 5.1 5.2 67 2.7 W 26 50 14 27 1006.8 1006.8 8.2
20/12:00am 10.8 4.3 4.7 66 2.8 W 28 46 15 25 1006.4 1006.4 8.2
 
Date/Time
CST
Temp
°C
App
Temp
°C
Dew
Point
°C
Rel
Hum
%
Delta-T
°C
Wind Press
QNH
hPa
Press
MSL
hPa
Rain since
9am
mm
Dir  Spd
km/h
Gust
km/h
Spd
kts
Gust
kts
19/11:30pm 10.9 4.0 4.6 65 2.9 W 30 56 16 30 1006.2 1006.2 8.2
19/11:00pm 11.3 4.3 5.8 69 2.6 W 32 50 17 27 1005.5 1005.5 8.2
19/10:30pm 11.7 5.8 7.4 75 2.1 W 28 48 15 26 1004.6 1004.6 8.2
19/10:06pm 11.7 5.9 7.8 77 1.9 W 28 46 15 25 1003.7 1003.7 8.2
19/10:00pm 11.5 6.4 7.8 78 1.8 W 24 39 13 21 1003.6 1003.6 8.2
19/09:34pm 11.5 5.8 8.4 81 1.5 W 28 48 15 26 1003.3 1003.3 8.2
19/09:30pm 11.4 5.7 8.3 81 1.5 W 28 43 15 23 1003.0 1003.0 8.2
19/09:00pm 12.2 6.0 9.2 82 1.5 WNW 32 54 17 29 1002.2 1002.3 8.0
19/08:30pm 12.0 5.2 9.4 84 1.3 NW 35 56 19 30 1001.9 1002.0 8.0
19/08:04pm 11.4 6.1 9.7 89 0.9 NW 28 46 15 25 1002.0 1002.1 8.0
19/08:00pm 11.5 6.9 9.8 89 0.9 NW 24 41 13 22 1002.2 1002.3 7.8
19/07:30pm 12.0 7.8 9.7 86 1.2 NW 22 35 12 19 1002.3 1002.4 7.2
19/07:00pm 11.9 6.9 9.5 85 1.2 NW 26 39 14 21 1002.3 1002.4 7.2
19/06:30pm 11.5 7.4 10.1 91 0.7 NNW 22 39 12 21 1002.1 1002.2 7.2
19/06:04pm 11.2 6.8 10.3 94 0.5 NNW 24 37 13 20 1002.0 1002.1 7.2
19/06:00pm 11.2 7.2 10.3 94 0.5 NNW 22 35 12 19 1002.1 1002.2 7.0
19/05:52pm 10.9 6.8 10.0 94 0.5 NNW 22 35 12 19 1002.2 1002.3 7.0
19/05:31pm 10.9 5.1 9.5 91 0.7 NNW 30 52 16 28 1002.4 1002.5 6.4
19/05:30pm 10.9 5.1 9.5 91 0.7 NNW 30 46 16 25 1002.4 1002.5 6.4
19/05:13pm 11.5 5.8 8.5 82 1.5 NNW 28 48 15 26 1001.5 1001.6 5.4
19/05:00pm 11.7 6.3 8.0 78 1.8 NNW 26 44 14 24 1001.1 1001.2 5.2
19/04:45pm 11.5 5.7 7.8 78 1.8 NNW 28 52 15 28 1001.4 1001.5 5.2
19/04:30pm 11.5 6.0 7.4 76 2.0 NNW 26 43 14 23 1001.5 1001.6 5.2
19/04:00pm 11.2 4.4 7.1 76 2.0 NNW 32 63 17 34 1001.4 1001.5 5.2
19/03:38pm 11.4 5.4 6.9 74 2.1 NNW 28 52 15 28 1001.1 1001.2 5.2
19/03:30pm 11.0 5.4 7.1 77 1.9 N 26 50 14 27 1001.1 1001.2 5.2
19/03:00pm 10.6 6.1 7.1 79 1.7 N 20 33 11 18 1001.0 1001.1 5.2
19/02:30pm 9.9 5.6 7.8 87 1.0 NNE 20 37 11 20 1001.2 1001.3 5.2
19/02:00pm 10.0 6.4 8.3 89 0.8 NNE 17 28 9 15 1002.3 1002.4 5.0
19/01:30pm 10.0 5.3 7.9 87 1.0 NNE 22 39 12 21 1002.6 1002.7 4.4
19/01:00pm 10.2 5.6 8.0 86 1.1 NNE 22 35 12 19 1003.7 1003.7 3.2
19/12:30pm 10.2 6.6 8.3 88 0.9 NE 17 24 9 13 1004.8 1004.8 2.8
19/12:00pm 10.3 7.0 8.2 87 1.0 NNE 15 30 8 16 1006.7 1006.7 2.4
19/11:30am 10.3 7.0 8.1 86 1.1 NNE 15 20 8 11 1007.2 1007.2 2.0
19/11:00am 10.4 6.7 8.0 85 1.2 N 17 28 9 15 1008.7 1008.7 1.4
19/10:30am 10.8 7.8 7.5 80 1.6 N 13 22 7 12 1008.7 1008.7 0.4
19/10:00am 11.3 7.8 7.2 76 2.0 N 15 26 8 14 1008.7 1008.7 0.2
19/09:30am 10.8 7.5 8.0 83 1.4 N 15 22 8 12 1008.6 1008.6 0.2
19/09:00am 11.3 8.5 7.0 75 2.1 NNE 11 19 6 10 1009.0 1009.0 0.2
19/08:30am 11.5 8.2 6.4 71 2.4 N 13 20 7 11 1009.8 1009.8 0.0
19/08:00am 11.7 7.5 5.8 67 2.8 N 17 30 9 16 1010.1 1010.1 0.0
19/07:30am 11.8 7.6 5.7 66 2.8 NNW 17 32 9 17 1010.1 1010.1 0.0
19/07:00am 11.8 7.2 5.4 65 3.0 NNW 19 30 10 16 1009.7 1009.7 0.0
19/06:30am 11.3 7.0 5.4 67 2.7 NNW 17 30 9 16 1010.0 1010.0 0.0
19/06:00am 11.2 7.3 5.5 68 2.6 NNW 15 24 8 13 1009.5 1009.5 0.0
19/05:30am 11.1 7.3 5.6 69 2.5 N 15 24 8 13 1009.4 1009.4 0.0
19/05:00am 11.2 6.6 5.7 69 2.5 N 19 35 10 19 1010.5 1010.5 0.0
19/04:30am 10.9 6.7 5.9 71 2.3 N 17 28 9 15 1010.3 1010.3 0.0
19/04:00am 10.6 6.8 5.8 72 2.2 N 15 24 8 13 1010.7 1010.7 0.0
19/03:30am 10.4 6.7 6.2 75 2.0 N 15 26 8 14 1011.4 1011.4 0.0
19/03:00am 10.2 6.9 6.2 76 1.9 NNE 13 20 7 11 1012.4 1012.4 0.0
19/02:30am 10.2 6.5 6.2 76 1.9 NNE 15 24 8 13 1013.7 1013.7 0.0
19/02:00am 9.9 6.9 6.1 77 1.8 NNE 11 19 6 10 1014.1 1014.1 0.0
19/01:30am 10.0 7.0 6.2 77 1.8 N 11 15 6 8 1014.6 1014.6 0.0
19/01:00am 10.0 7.0 6.2 77 1.8 NNE 11 17 6 9 1014.4 1014.4 0.0
19/12:30am 10.3 6.9 6.1 75 1.9 NNE 13 20 7 11 1014.5 1014.5 0.0
19/12:00am 10.5 6.7 5.9 73 2.1 NNE 15 24 8 13 1014.8 1014.8 0.0
 
Date/Time
CST
Temp
°C
App
Temp
°C
Dew
Point
°C
Rel
Hum
%
Delta-T
°C
Wind Press
QNH
hPa
Press
MSL
hPa
Rain since
9am
mm
Dir  Spd
km/h
Gust
km/h
Spd
kts
Gust
kts
18/11:30pm 10.7 6.2 6.1 73 2.1 NNE 19 28 10 15 1015.1 1015.1 0.0
18/11:00pm 10.4 7.0 6.0 74 2.0 NNE 13 22 7 12 1015.5 1015.5 0.0
18/10:30pm 10.4 7.0 6.0 74 2.0 NNE 13 30 7 16 1015.4 1015.4 0.0
18/10:00pm 10.5 7.1 6.1 74 2.0 NNE 13 24 7 13 1016.6 1016.6 0.0
18/09:30pm 10.4 7.1 6.2 75 2.0 NNE 13 20 7 11 1016.7 1016.7 0.0
18/09:00pm 10.4 7.1 6.2 75 2.0 NE 13 20 7 11 1016.8 1016.8 0.0
18/08:30pm 10.4 7.4 6.2 75 2.0 NNE 11 19 6 10 1017.7 1017.7 0.0
18/08:00pm 10.3 7.7 6.1 75 1.9 N 9 13 5 7 1017.9 1017.9 0.0
18/07:30pm 10.6 7.7 6.4 75 2.0 NNW 11 19 6 10 1018.2 1018.2 0.0
18/07:00pm 10.8 8.2 6.2 73 2.1 NNW 9 13 5 7 1017.8 1017.8 0.0
18/06:30pm 11.0 8.1 6.4 73 2.2 N 11 17 6 9 1017.6 1017.6 0.0
18/06:00pm 11.2 8.8 7.1 76 2.0 NNW 9 15 5 8 1018.0 1018.0 0.0
18/05:30pm 11.0 8.6 5.3 68 2.6 N 7 11 4 6 1018.2 1018.2 0.0
18/05:00pm 11.7 9.3 5.1 64 3.0 N 7 11 4 6 1018.5 1018.5 0.0
18/04:30pm 11.8 9.3 4.8 62 3.2 N 7 13 4 7 1018.0 1018.0 0.0
18/04:00pm 12.2 9.3 4.9 61 3.4 NNW 9 15 5 8 1018.8 1018.8 0.0
18/03:30pm 12.3 9.4 4.5 59 3.5 N 9 13 5 7 1018.5 1018.5 0.0
18/03:00pm 12.5 9.7 5.2 61 3.4 NNW 9 15 5 8 1018.4 1018.4 0.0
18/02:30pm 12.4 9.9 4.9 60 3.4 N 7 13 4 7 1017.9 1017.9 0.0
18/02:00pm 12.2 9.9 4.9 61 3.4 NNW 6 9 3 5 1018.5 1018.5 0.0
18/01:30pm 12.0 9.7 4.7 61 3.3 N 6 11 3 6 1019.2 1019.2 0.0
18/01:00pm 12.5 10.1 4.5 58 3.6 NNW 6 13 3 7 1019.4 1019.4 0.0
18/12:30pm 12.6 9.8 5.1 60 3.5 WNW 9 17 5 9 1020.3 1020.3 0.0
18/12:00pm 12.4 9.2 5.1 61 3.4 WSW 11 17 6 9 1020.9 1020.9 0.0
18/11:30am 12.0 9.1 4.5 60 3.4 SW 9 17 5 9 1021.6 1021.6 0.0
18/11:00am 11.8 8.6 5.2 64 3.0 W 11 15 6 8 1022.2 1022.2 0.0
18/10:30am 11.4 8.2 5.3 66 2.8 WNW 11 17 6 9 1022.4 1022.4 0.0
18/10:00am 10.9 9.1 7.2 78 1.8 NNW 6 9 3 5 1022.3 1022.3 0.0
18/09:30am 10.3 9.5 6.6 78 1.7 CALM 0 0 0 0 1022.0 1022.0 0.0
18/09:00am 9.7 7.9 7.1 84 1.2 N 6 7 3 4 1021.7 1021.7 3.2
18/08:30am 9.4 7.7 7.5 88 0.9 N 6 9 3 5 1021.7 1021.7 3.2
18/08:00am 8.7 7.1 6.3 85 1.1 SE 4 7 2 4 1021.9 1021.9 3.2
18/07:30am 8.1 7.4 6.9 92 0.6 CALM 0 6 0 3 1021.8 1021.8 3.2
18/07:00am 8.2 7.6 7.6 96 0.3 CALM 0 0 0 0 1021.9 1021.9 3.2
18/06:30am 8.1 7.6 7.7 97 0.2 CALM 0 0 0 0 1021.8 1021.8 3.2
18/06:00am 8.0 7.4 7.6 97 0.2 CALM 0 0 0 0 1021.6 1021.6 3.2
18/05:30am 8.0 7.4 7.6 97 0.2 CALM 0 0 0 0 1021.4 1021.4 3.2
18/05:00am 7.9 6.9 7.3 96 0.3 SSE 2 7 1 4 1021.4 1021.4 3.2
18/04:30am 7.8 6.8 7.4 97 0.2 SE 2 6 1 3 1021.3 1021.3 3.2
18/04:00am 7.7 6.7 7.4 98 0.1 SE 2 6 1 3 1021.5 1021.5 3.2
18/03:30am 6.9 6.2 6.9 100 0.0 CALM 0 0 0 0 1021.6 1021.6 3.2
18/03:00am 6.4 5.6 6.4 100 0.0 CALM 0 0 0 0 1021.5 1021.5 3.2
18/02:30am 5.9 4.9 5.8 99 0.0 CALM 0 0 0 0 1021.7 1021.7 3.0
18/02:21am 6.0 5.1 5.9 99 0.0 CALM 0 0 0 0 1021.6 1021.6 3.0
18/02:01am 5.8 4.8 5.4 97 0.2 CALM 0 0 0 0 1021.5 1021.5 3.0
18/02:00am 5.9 4.9 5.5 97 0.2 CALM 0 0 0 0 1021.5 1021.5 3.0
18/01:44am 6.5 5.7 6.4 99 0.0 CALM 0 0 0 0 1021.1 1021.1 3.0
18/01:30am 6.2 5.2 5.8 97 0.2 CALM 0 6 0 3 1021.1 1021.1 3.0
18/01:28am 6.3 5.0 5.9 97 0.2 SE 2 6 1 3 1021.0 1021.0 3.0
18/01:14am 7.3 6.3 7.2 99 0.0 SE 2 6 1 3 1020.8 1020.8 3.0
18/01:00am 7.1 6.4 7.0 99 0.0 CALM 0 0 0 0 1021.1 1021.1 3.0
18/12:54am 6.7 5.8 6.1 96 0.3 CALM 0 0 0 0 1021.1 1021.1 3.0
18/12:30am 7.6 7.0 7.2 97 0.2 CALM 0 0 0 0 1021.1 1021.1 3.0
18/12:00am 8.5 6.8 7.7 95 0.4 SE 6 7 3 4 1021.3 1021.3 3.0
 
Date/Time
CST
Temp
°C
App
Temp
°C
Dew
Point
°C
Rel
Hum
%
Delta-T
°C
Wind Press
QNH
hPa
Press
MSL
hPa
Rain since
9am
mm
Dir  Spd
km/h
Gust
km/h
Spd
kts
Gust
kts
17/11:30pm 9.2 7.4 8.1 93 0.5 S 7 17 4 9 1021.6 1021.6 3.0
17/11:00pm 9.1 7.5 8.2 94 0.4 SSE 6 7 3 4 1021.8 1021.8 3.0
17/10:30pm 9.8 8.2 8.7 93 0.5 S 7 11 4 6 1022.0 1022.0 3.0
17/10:00pm 9.9 7.9 8.8 93 0.5 SSW 9 15 5 8 1022.0 1022.0 3.0
17/09:30pm 9.6 8.5 8.5 93 0.5 S 4 9 2 5 1021.7 1021.7 3.0
17/09:00pm 9.3 8.9 8.2 93 0.5 CALM 0 6 0 3 1021.6 1021.6 3.0
17/08:30pm 9.5 7.7 8.1 91 0.7 SSW 7 9 4 5 1021.4 1021.4 3.0
17/08:00pm 9.7 8.2 8.5 92 0.6 SSW 6 9 3 5 1021.2 1021.2 3.0
17/07:30pm 9.8 8.4 8.7 93 0.5 S 6 9 3 5 1020.8 1020.8 3.0
17/07:00pm 10.5 9.0 9.3 92 0.6 SSW 7 13 4 7 1020.5 1020.5 3.0
17/06:30pm 10.9 9.2 9.7 92 0.6 S 9 17 5 9 1020.2 1020.2 3.0
17/06:00pm 11.0 9.4 10.1 94 0.5 SSW 9 15 5 8 1019.6 1019.6 3.0
17/05:30pm 11.0 8.6 10.2 95 0.4 SSW 13 22 7 12 1019.1 1019.1 3.0
17/05:00pm 11.4 9.4 10.0 91 0.7 SSW 11 17 6 9 1018.6 1018.6 3.0
17/04:30pm 11.8 10.1 9.7 87 1.1 SSW 9 15 5 8 1018.0 1018.0 3.0
17/04:00pm 12.1 9.2 9.5 84 1.3 S 15 30 8 16 1017.8 1017.8 3.0
17/03:30pm 12.8 11.4 11.0 89 0.9 S 9 13 5 7 1017.4 1017.4 3.0
17/03:00pm 12.0 9.7 10.6 91 0.7 SSW 13 22 7 12 1017.3 1017.3 2.8
17/02:30pm 13.0 10.7 10.5 85 1.3 SSW 13 20 7 11 1017.0 1017.0 2.8
17/02:00pm 12.2 10.0 10.9 92 0.7 SW 13 20 7 11 1017.0 1017.0 2.8
17/01:58pm 12.2 10.0 10.8 91 0.7 SW 13 26 7 14 1017.0 1017.0 2.6
17/01:32pm 11.9 10.2 11.3 96 0.3 SSW 11 20 6 11 1017.1 1017.1 2.6
17/01:30pm 11.8 10.1 11.2 96 0.3 SSW 11 19 6 10 1017.1 1017.1 2.6
17/01:29pm 11.7 10.0 11.1 96 0.3 SSW 11 19 6 10 1017.1 1017.1 2.6
17/01:11pm 11.9 9.3 10.8 93 0.6 SW 15 28 8 15 1017.2 1017.2 2.2
17/01:00pm 12.7 9.7 10.6 87 1.1 SW 17 26 9 14 1017.2 1017.2 1.8
17/12:30pm 11.6 9.1 9.7 88 1.0 SW 13 26 7 14 1017.8 1017.8 1.8
17/12:00pm 12.2 9.5 10.3 88 1.0 SW 15 20 8 11 1018.1 1018.1 1.8
17/11:54am 12.1 9.3 10.0 87 1.1 SSW 15 24 8 13 1018.2 1018.2 1.8
17/11:30am 11.9 9.1 10.0 88 1.0 SSW 15 30 8 16 1018.7 1018.7 1.8
17/11:00am 11.3 8.9 10.0 92 0.7 SW 13 20 7 11 1018.9 1018.9 1.8
17/10:34am 11.1 8.7 10.2 94 0.5 SW 13 24 7 13 1019.0 1019.0 1.8
17/10:30am 11.2 8.9 10.4 95 0.4 SSW 13 24 7 13 1019.0 1019.0 1.8
17/10:14am 11.2 9.6 10.1 93 0.6 SSW 9 20 5 11 1019.0 1019.0 1.4
17/10:00am 10.9 9.4 10.4 97 0.3 S 9 17 5 9 1019.0 1019.0 0.6
17/09:30am 10.2 8.8 9.6 96 0.3 SSE 7 11 4 6 1018.9 1018.9 0.4
17/09:03am 9.6 8.2 8.8 95 0.4 SSE 6 9 3 5 1018.6 1018.6 0.2
17/09:00am 9.6 8.2 8.8 95 0.4 S 6 11 3 6 1018.6 1018.6 4.0
17/08:36am 9.4 8.3 8.5 94 0.4 SSE 4 7 2 4 1018.4 1018.4 3.4
17/08:30am 9.2 8.4 8.3 94 0.4 SE 2 7 1 4 1018.3 1018.3 3.0
17/08:00am 7.9 7.3 7.3 96 0.3 CALM 0 4 0 2 1018.2 1018.2 3.0
17/07:30am 7.9 6.1 7.1 95 0.4 S 6 9 3 5 1018.0 1018.0 2.8
17/07:00am 7.5 6.0 6.9 96 0.3 S 4 7 2 4 1017.8 1017.8 2.8
17/06:30am 7.8 5.8 7.1 95 0.3 SSE 7 9 4 5 1017.8 1017.8 2.8
17/06:08am 8.0 6.2 7.2 95 0.4 SSE 6 7 3 4 1017.7 1017.7 2.8
17/06:00am 8.1 6.4 7.5 96 0.3 S 6 9 3 5 1017.6 1017.6 2.8
17/05:52am 8.2 6.4 7.8 97 0.2 S 7 9 4 5 1017.6 1017.6 2.8
17/05:30am 6.9 5.7 6.3 96 0.3 S 2 7 1 4 1017.6 1017.6 1.8
17/05:00am 7.5 5.6 6.6 94 0.4 SSE 6 7 3 4 1017.6 1017.6 1.8
17/04:30am 7.4 5.9 6.7 95 0.3 SSE 4 7 2 4 1017.6 1017.6 1.8
17/04:00am 7.0 6.2 6.3 95 0.3 CALM 0 0 0 0 1017.7 1017.7 1.8
17/03:30am 6.9 5.2 6.0 94 0.4 SSE 4 6 2 3 1017.8 1017.8 1.8
17/03:00am 7.3 6.4 6.1 92 0.5 CALM 0 7 0 4 1018.0 1018.0 1.8
17/02:30am 7.5 5.5 6.3 92 0.5 SSE 6 9 3 5 1018.2 1018.2 1.8
17/02:00am 6.4 5.4 5.7 95 0.3 CALM 0 0 0 0 1018.4 1018.4 1.8
17/01:30am 6.9 4.8 5.8 93 0.5 SE 6 6 3 3 1018.4 1018.4 1.8

Latest Capital City Observations: Canberra | Sydney | Melbourne | Brisbane | Adelaide | Perth | Hobart | Darwin

Other formats

Comma delimited format used in spreadsheet applications
http://www.bom.gov.au/fwo/IDS60901/IDS60901.94648.axf

JavaScript Object Notation format (JSON) in row-major order
http://www.bom.gov.au/fwo/IDS60901/IDS60901.94648.json

Data quality

Most of these data are generated automatically and are frequently updated. Quality checks on data are not normally performed. It is possible for incorrect values to appear. Refer to information at About Latest Weather Observations and please check the disclaimer before using these data.